Time;durP1;ratioP1;P1;durP2;ratioP2;P2;SDS_P1;SDS_P2;PMS_P1;PMS_P2;Temp;Humidity;BMP_temperature;BMP_pressure;BME280_temperature;BME280_humidity;BME280_pressure;Samples;Min_cycle;Max_cycle;Signal;HPM_P1;HPM_P2
2022/08/03 00:00:53;;;;;;;4.75;2.60;;;;;;;18.95;79.09;95994.38;5001163;28;24444;-73
2022/08/03 00:03:19;;;;;;;3.88;2.78;;;;;;;19.00;79.05;95992.13;5002738;28;24444;-73
2022/08/03 00:05:46;;;;;;;4.22;2.97;;;;;;;19.03;79.13;95983.16;5009274;28;24468;-73
2022/08/03 00:08:13;;;;;;;3.97;3.00;;;;;;;19.00;79.09;95986.06;5004591;28;24456;-73
2022/08/03 00:10:40;;;;;;;4.30;3.30;;;;;;;19.01;78.64;95990.31;5002098;28;24448;-73
2022/08/03 00:13:06;;;;;;;4.63;3.05;;;;;;;18.96;79.60;95985.50;5009733;28;24440;-73
2022/08/03 00:15:33;;;;;;;5.72;2.85;;;;;;;18.81;80.64;95979.06;5005443;28;24969;-74
2022/08/03 00:17:59;;;;;;;4.00;2.70;;;;;;;18.70;81.51;95980.00;5006750;28;24443;-73
2022/08/03 00:20:26;;;;;;;4.05;2.65;;;;;;;18.63;81.75;95978.94;4997639;28;24445;-74
2022/08/03 00:22:52;;;;;;;5.80;3.38;;;;;;;18.62;81.76;95983.34;5001298;28;24456;-74
2022/08/03 00:25:20;;;;;;;3.50;2.60;;;;;;;18.68;81.56;95975.88;5009689;28;24432;-74
2022/08/03 00:27:46;;;;;;;4.50;2.93;;;;;;;18.53;81.93;95978.94;5007970;28;24451;-74
2022/08/03 00:30:13;;;;;;;3.88;3.00;;;;;;;18.47;82.66;95979.50;4997953;28;24826;-74
2022/08/03 00:32:39;;;;;;;3.67;2.95;;;;;;;18.51;82.21;95975.63;5005675;28;24453;-74
2022/08/03 00:35:07;;;;;;;3.87;3.17;;;;;;;18.59;81.67;95978.38;5006658;28;24532;-73
2022/08/03 00:37:33;;;;;;;4.63;3.22;;;;;;;18.59;81.63;95967.88;5008944;28;24444;-74
2022/08/03 00:39:59;;;;;;;4.72;2.92;;;;;;;18.58;81.61;95976.72;4998517;28;24468;-74
2022/08/03 00:42:27;;;;;;;4.80;2.90;;;;;;;18.50;81.00;95976.59;4997376;28;24463;-74
2022/08/03 00:44:54;;;;;;;4.32;2.60;;;;;;;18.40;81.96;95973.16;5009591;28;24449;-74
2022/08/03 00:47:20;;;;;;;5.43;3.25;;;;;;;18.30;81.99;95973.16;5009029;28;24447;-74
2022/08/03 00:49:46;;;;;;;5.72;4.00;;;;;;;18.20;83.25;95971.50;5008480;28;24463;-74
2022/08/03 00:52:15;;;;;;;11.38;6.28;;;;;;;18.20;83.71;95966.25;5009385;28;24436;-74
2022/08/03 00:54:41;;;;;;;11.48;6.35;;;;;;;18.23;83.99;95974.69;5009291;28;24478;-73
2022/08/03 00:57:08;;;;;;;10.60;6.80;;;;;;;18.26;84.56;95971.78;5003296;28;24436;-74
2022/08/03 00:59:38;;;;;;;11.23;6.18;;;;;;;18.28;84.40;95972.47;5000316;28;24794;-74
2022/08/03 01:02:04;;;;;;;6.80;4.95;;;;;;;18.35;83.40;95965.72;5000638;28;24455;-74
2022/08/03 01:04:31;;;;;;;8.75;4.78;;;;;;;18.35;83.98;95968.34;5002412;28;24440;-74
2022/08/03 01:07:03;;;;;;;5.50;3.88;;;;;;;18.32;84.52;95959.94;5004471;28;24440;-74
2022/08/03 01:09:38;;;;;;;5.28;3.90;;;;;;;18.23;85.68;95958.13;5007902;28;24464;-74
2022/08/03 01:12:14;;;;;;;4.55;3.20;;;;;;;18.25;84.70;95959.66;5012750;28;24439;-73
2022/08/03 01:14:51;;;;;;;4.50;3.20;;;;;;;18.24;85.21;95959.78;5003982;28;25053;-74
2022/08/03 01:17:25;;;;;;;6.47;3.10;;;;;;;18.22;84.66;95957.31;5007258;28;24547;-74
2022/08/03 01:19:59;;;;;;;3.05;2.72;;;;;;;18.19;84.58;95957.56;5010349;28;24443;-74
2022/08/03 01:23:00;;;;;;;3.75;2.97;;;;;;;18.19;83.88;95951.50;5012394;28;24502;-73
2022/08/03 01:25:40;;;;;;;3.88;2.75;;;;;;;18.07;84.57;95946.41;5006981;28;24459;-74
2022/08/03 01:28:22;;;;;;;4.28;2.80;;;;;;;17.99;85.10;95956.75;5011607;28;24447;-74
2022/08/03 01:30:53;;;;;;;4.10;2.63;;;;;;;18.00;84.98;95941.84;5012020;28;24539;-74
2022/08/03 01:33:24;;;;;;;4.65;3.03;;;;;;;17.98;84.54;95941.97;5005505;28;24451;-74
2022/08/03 01:35:55;;;;;;;3.10;2.80;;;;;;;18.07;83.52;95940.34;5011034;28;24498;-74
2022/08/03 01:38:26;;;;;;;5.05;2.70;;;;;;;17.95;84.44;95938.78;5012067;28;24482;-74
2022/08/03 01:40:56;;;;;;;2.40;2.20;;;;;;;17.78;85.32;95950.78;5005304;28;24981;-74
2022/08/03 01:43:26;;;;;;;2.90;2.47;;;;;;;17.85;84.88;95942.25;5012193;28;24506;-74
2022/08/03 01:45:56;;;;;;;3.45;2.78;;;;;;;17.82;84.60;95946.94;5010895;28;24974;-74
2022/08/03 01:48:23;;;;;;;3.65;2.80;;;;;;;17.64;86.92;95936.25;5011431;28;24436;-74
2022/08/03 01:50:51;;;;;;;5.78;2.83;;;;;;;17.65;85.92;95940.56;5011607;28;24447;-73
2022/08/03 01:53:20;;;;;;;2.87;2.60;;;;;;;17.53;87.02;95939.81;5008559;28;24448;-73
2022/08/03 01:55:51;;;;;;;3.30;3.00;;;;;;;17.51;87.31;95936.53;5011829;28;24507;-73
2022/08/03 01:58:21;;;;;;;3.75;2.78;;;;;;;17.44;88.30;95935.41;5011567;28;24436;-74
2022/08/03 02:00:48;;;;;;;4.88;3.20;;;;;;;17.36;89.08;95935.25;5035161;22;24472;-72
2022/08/03 02:03:17;;;;;;;3.85;2.60;;;;;;;17.39;88.88;95927.09;5008715;28;24439;-72
2022/08/03 02:05:45;;;;;;;3.25;2.88;;;;;;;17.45;88.75;95923.13;5011234;28;24444;-72
2022/08/03 02:08:13;;;;;;;3.92;2.45;;;;;;;17.53;88.09;95936.38;5011077;28;24483;-72
2022/08/03 02:10:43;;;;;;;5.20;3.17;;;;;;;17.48;88.30;95939.41;5005798;28;24483;-72
2022/08/03 02:13:10;;;;;;;5.53;3.05;;;;;;;17.54;87.93;95928.41;5008211;28;24444;-72
2022/08/03 02:15:37;;;;;;;5.27;2.93;;;;;;;17.56;87.96;95936.94;5010922;28;24495;-72
2022/08/03 02:18:07;;;;;;;5.00;3.45;;;;;;;17.62;87.50;95931.16;5011106;28;24841;-72
2022/08/03 02:20:37;;;;;;;7.20;3.65;;;;;;;17.53;88.30;95934.59;5010713;28;24436;-72
2022/08/03 02:23:05;;;;;;;4.40;3.20;;;;;;;17.54;88.28;95932.78;5009118;28;24467;-72
2022/08/03 02:25:33;;;;;;;3.75;2.95;;;;;;;17.52;88.60;95929.50;5010222;28;24447;-72
2022/08/03 02:28:06;;;;;;;6.43;3.58;;;;;;;17.52;88.51;95932.94;5009580;28;24428;-72
2022/08/03 02:30:37;;;;;;;6.70;4.87;;;;;;;17.60;87.93;95934.88;5010784;28;24507;-72
2022/08/03 02:33:04;;;;;;;10.13;5.72;;;;;;;17.47;88.54;95937.75;5010999;28;24444;-72
2022/08/03 02:35:33;;;;;;;8.20;5.30;;;;;;;17.34;89.85;95931.94;5010470;28;24440;-72
2022/08/03 02:38:04;;;;;;;9.00;4.82;;;;;;;17.35;90.02;95930.97;5010250;28;24432;-72
2022/08/03 02:40:32;;;;;;;6.43;4.22;;;;;;;17.39;89.17;95935.81;5008161;28;24447;-72
2022/08/03 02:43:02;;;;;;;5.93;3.92;;;;;;;17.48;88.62;95934.16;5009583;28;24437;-72
2022/08/03 02:45:29;;;;;;;7.72;3.80;;;;;;;17.61;87.55;95937.38;5010133;28;24494;-72
2022/08/03 02:48:02;;;;;;;5.50;3.23;;;;;;;17.50;87.55;95932.25;5002659;28;24444;-72
2022/08/03 02:50:30;;;;;;;4.47;2.95;;;;;;;17.32;88.96;95926.00;5006502;28;24893;-72
2022/08/03 02:52:58;;;;;;;4.70;2.75;;;;;;;17.23;90.03;95918.94;5010626;28;24440;-73
2022/08/03 02:55:27;;;;;;;6.03;3.08;;;;;;;17.18;90.22;95922.81;5010316;28;24444;-73
2022/08/03 02:57:55;;;;;;;8.40;3.28;;;;;;;17.17;90.50;95918.53;5008336;28;24483;-73
2022/08/03 03:00:23;;;;;;;4.03;3.23;;;;;;;17.30;89.30;95918.28;5010073;28;24790;-73
2022/08/03 03:02:50;;;;;;;5.33;3.33;;;;;;;17.27;89.47;95920.34;5008602;28;24468;-73
2022/08/03 03:05:17;;;;;;;4.80;2.92;;;;;;;17.09;89.57;95923.59;5005967;28;24440;-73
2022/08/03 03:07:45;;;;;;;5.20;2.88;;;;;;;16.96;90.85;95920.38;5001618;28;24437;-73
2022/08/03 03:10:12;;;;;;;3.92;3.00;;;;;;;16.95;91.02;95915.28;5002293;28;24461;-73
2022/08/03 03:12:41;;;;;;;5.65;3.45;;;;;;;16.93;91.37;95911.00;5009828;28;25052;-73
2022/08/03 03:15:09;;;;;;;3.67;3.17;;;;;;;16.97;90.88;95914.19;5007978;28;24481;-73
2022/08/03 03:17:37;;;;;;;4.97;3.38;;;;;;;16.99;90.40;95912.28;5009116;28;24536;-73
2022/08/03 03:20:05;;;;;;;3.85;3.08;;;;;;;17.12;88.73;95925.94;5009740;28;24538;-73
2022/08/03 03:22:33;;;;;;;3.70;2.95;;;;;;;17.18;87.55;95920.19;5002624;28;24440;-73
2022/08/03 03:25:01;;;;;;;4.35;3.10;;;;;;;16.98;88.34;95917.63;5004899;28;24491;-73
2022/08/03 03:27:27;;;;;;;6.43;3.75;;;;;;;16.80;89.81;95918.25;5009315;28;24432;-73
2022/08/03 03:29:56;;;;;;;6.20;3.55;;;;;;;16.68;92.18;95916.63;5008974;28;24463;-73
2022/08/03 03:32:23;;;;;;;4.00;3.60;;;;;;;16.65;92.90;95917.75;5003805;28;24798;-73
2022/08/03 03:34:50;;;;;;;5.75;3.78;;;;;;;16.70;93.26;95914.72;5005009;28;24443;-73
2022/08/03 03:37:16;;;;;;;6.22;3.58;;;;;;;16.73;92.97;95908.41;5009132;28;24444;-73
2022/08/03 03:39:43;;;;;;;4.25;3.38;;;;;;;16.85;92.04;95904.78;5009138;28;24439;-73
2022/08/03 03:42:09;;;;;;;4.28;3.75;;;;;;;16.85;92.61;95915.25;5005397;28;24436;-73
2022/08/03 03:44:36;;;;;;;3.40;3.10;;;;;;;16.74;93.93;95910.09;5009257;28;24444;-73
2022/08/03 03:47:04;;;;;;;4.57;3.45;;;;;;;16.76;93.20;95914.25;5008180;28;24833;-73
2022/08/03 03:49:31;;;;;;;3.92;2.85;;;;;;;16.70;93.41;95910.31;5008377;28;24977;-73
2022/08/03 03:51:58;;;;;;;3.90;3.28;;;;;;;16.72;93.24;95910.19;5009064;28;24432;-73
2022/08/03 03:54:24;;;;;;;3.30;2.97;;;;;;;16.73;93.48;95911.03;5008666;28;24867;-73
2022/08/03 03:56:50;;;;;;;3.90;3.30;;;;;;;16.70;94.35;95912.94;5004054;28;24433;-72
2022/08/03 03:59:17;;;;;;;3.60;3.30;;;;;;;16.71;94.08;95911.16;5005541;28;24444;-72
2022/08/03 04:01:44;;;;;;;4.70;3.20;;;;;;;16.77;93.81;95915.06;5008421;28;24514;-72
2022/08/03 04:12:29;;;;;;;3.83;3.03;;;;;;;16.84;91.35;95924.06;4999961;28;24451;-75
2022/08/03 04:14:57;;;;;;;4.50;2.88;;;;;;;16.64;93.00;95920.47;5002817;28;24460;-74
2022/08/03 04:17:26;;;;;;;2.70;2.42;;;;;;;16.55;92.83;95918.66;4996856;28;25001;-75
2022/08/03 04:19:57;;;;;;;4.00;2.70;;;;;;;16.52;93.66;95918.91;5009503;28;24531;-74
2022/08/03 04:22:28;;;;;;;5.68;2.90;;;;;;;16.54;93.32;95923.03;5009649;28;24440;-74
2022/08/03 04:25:00;;;;;;;4.00;3.00;;;;;;;16.64;92.86;95925.69;5007037;28;24444;-74
2022/08/03 04:27:30;;;;;;;3.72;2.70;;;;;;;16.68;92.80;95927.91;5007262;28;24487;-74
2022/08/03 04:30:00;;;;;;;3.50;2.80;;;;;;;16.57;92.96;95920.16;5006655;28;24463;-74
2022/08/03 04:32:28;;;;;;;3.40;2.88;;;;;;;16.49;94.27;95921.75;5008329;28;24427;-74
2022/08/03 04:34:57;;;;;;;5.23;2.57;;;;;;;16.51;94.72;95927.72;5006728;28;24451;-74
2022/08/03 04:37:32;;;;;;;3.45;2.53;;;;;;;16.45;95.45;95929.84;5010489;28;24440;-74
2022/08/03 04:40:02;;;;;;;2.92;2.63;;;;;;;16.37;96.89;95927.06;5011692;28;24448;-74
2022/08/03 04:42:31;;;;;;;2.78;2.58;;;;;;;16.39;96.64;95930.38;5012267;28;24487;-74
2022/08/03 04:44:58;;;;;;;4.80;3.00;;;;;;;16.52;96.12;95932.78;5011252;28;24829;-74
2022/08/03 04:47:25;;;;;;;3.70;3.28;;;;;;;16.75;94.35;95941.34;5011299;28;24480;-74
2022/08/03 04:49:52;;;;;;;4.65;3.30;;;;;;;16.82;94.24;95941.66;5012091;28;25061;-74
2022/08/03 04:52:20;;;;;;;5.70;2.97;;;;;;;16.79;95.90;95944.53;5004064;28;24441;-73
2022/08/03 04:54:48;;;;;;;4.03;3.38;;;;;;;16.80;96.76;95944.41;5006328;28;24822;-74
2022/08/03 04:57:14;;;;;;;5.20;3.78;;;;;;;16.94;96.20;95943.22;5012321;28;24559;-73
2022/08/03 04:59:41;;;;;;;4.22;3.42;;;;;;;17.04;95.65;95945.88;5011988;28;24794;-74
2022/08/03 05:02:07;;;;;;;6.72;3.38;;;;;;;17.10;96.54;95940.13;5012169;28;24540;-74
2022/08/03 05:04:34;;;;;;;7.22;3.90;;;;;;;17.16;96.59;95936.97;5010635;28;24498;-74
2022/08/03 05:07:00;;;;;;;3.55;3.22;;;;;;;17.32;95.64;95939.09;5007108;28;24437;-75
2022/08/03 05:09:28;;;;;;;5.32;3.10;;;;;;;17.45;95.39;95946.69;5006452;28;24487;-74
2022/08/03 05:11:55;;;;;;;4.50;3.33;;;;;;;17.56;94.69;95947.41;5011759;28;25004;-73
2022/08/03 05:14:21;;;;;;;3.00;2.80;;;;;;;17.73;94.39;95950.34;5010326;28;24444;-74
2022/08/03 05:16:48;;;;;;;5.35;3.50;;;;;;;17.86;92.32;95946.53;5007740;28;24447;-73
2022/08/03 05:19:14;;;;;;;2.95;2.65;;;;;;;17.94;88.11;95945.00;5011380;28;24985;-74
2022/08/03 05:21:41;;;;;;;5.30;3.20;;;;;;;17.99;86.22;95954.13;5011568;28;24443;-75
2022/08/03 05:24:07;;;;;;;4.55;3.13;;;;;;;18.01;85.94;95954.81;5010129;28;25028;-74
2022/08/03 05:26:36;;;;;;;5.68;2.80;;;;;;;17.95;85.39;95949.28;5010882;28;24439;-74
2022/08/03 05:29:02;;;;;;;3.78;2.75;;;;;;;17.91;85.48;95948.75;5010206;28;24441;-74
2022/08/03 05:31:29;;;;;;;3.67;2.97;;;;;;;17.98;85.25;95941.97;5011241;28;24460;-75
2022/08/03 05:33:57;;;;;;;3.67;2.85;;;;;;;18.21;85.03;95950.41;5011569;28;25051;-75
2022/08/03 05:36:23;;;;;;;3.45;2.95;;;;;;;18.40;82.52;95948.75;5010041;28;24444;-75
2022/08/03 05:38:50;;;;;;;3.38;2.83;;;;;;;18.62;82.33;95946.63;5011141;28;24443;-74
2022/08/03 05:41:16;;;;;;;3.28;2.80;;;;;;;18.82;81.67;95950.03;5011396;28;24490;-74
2022/08/03 05:43:44;;;;;;;3.30;2.72;;;;;;;19.02;82.03;95947.34;5011999;28;24440;-71
2022/08/03 05:46:11;;;;;;;4.43;2.85;;;;;;;19.01;78.32;95949.16;5009815;28;25061;-71
2022/08/03 05:48:37;;;;;;;3.22;2.55;;;;;;;19.16;76.47;95951.31;5010391;28;24443;-70
2022/08/03 05:51:06;;;;;;;3.08;2.60;;;;;;;19.15;75.99;95949.66;5011633;28;24471;-71
2022/08/03 05:53:33;;;;;;;5.13;3.03;;;;;;;19.33;75.56;95945.31;5011748;28;24540;-71
2022/08/03 05:55:59;;;;;;;3.72;2.35;;;;;;;19.51;74.42;95945.34;5011826;28;24494;-72
2022/08/03 05:58:26;;;;;;;3.70;2.30;;;;;;;19.66;73.71;95948.34;5012176;28;24503;-71
2022/08/03 06:00:54;;;;;;;3.23;2.53;;;;;;;19.80;72.21;95950.44;5010847;28;25218;-72
2022/08/03 06:03:20;;;;;;;2.42;2.22;;;;;;;19.90;71.38;95951.19;5012337;28;24530;-73
2022/08/03 06:05:47;;;;;;;2.97;2.40;;;;;;;19.73;71.46;95950.22;5012074;28;24527;-72
2022/08/03 06:08:13;;;;;;;5.70;2.50;;;;;;;19.76;70.30;95949.94;5008779;28;24583;-72
2022/08/03 06:10:40;;;;;;;2.92;2.30;;;;;;;19.77;70.40;95951.56;5011357;28;24472;-73
2022/08/03 06:13:06;;;;;;;3.58;2.35;;;;;;;19.87;68.40;95950.66;5011965;28;24455;-73
2022/08/03 06:15:34;;;;;;;3.88;2.42;;;;;;;19.92;69.29;95953.69;5007363;28;24436;-68
2022/08/03 06:18:02;;;;;;;4.15;2.38;;;;;;;19.91;69.11;95946.75;5010993;28;24446;-73
2022/08/03 06:20:29;;;;;;;9.45;2.67;;;;;;;20.13;69.42;95942.84;5002802;28;25252;-72
2022/08/03 06:22:55;;;;;;;4.53;2.42;;;;;;;20.15;68.73;95943.53;5005416;28;24539;-72
2022/08/03 06:25:22;;;;;;;2.78;2.15;;;;;;;20.25;68.33;95950.38;5010817;28;24901;-72
2022/08/03 06:27:48;;;;;;;3.03;2.25;;;;;;;20.20;68.47;95947.34;5010982;28;24460;-72
2022/08/03 06:30:16;;;;;;;4.50;2.40;;;;;;;20.43;68.30;95944.25;5009716;28;24464;-73
2022/08/03 06:32:42;;;;;;;2.90;2.20;;;;;;;20.81;66.59;95937.00;5006141;28;24499;-72
2022/08/03 06:35:10;;;;;;;4.43;2.20;;;;;;;21.06;65.29;95941.41;5003308;28;24436;-73
2022/08/03 06:37:44;;;;;;;4.03;2.25;;;;;;;21.46;66.66;95953.13;5010520;28;24429;-73
2022/08/03 06:40:12;;;;;;;5.10;2.60;;;;;;;21.92;64.49;95948.34;5004983;28;24429;-73
2022/08/03 06:42:38;;;;;;;3.85;2.25;;;;;;;22.14;61.60;95939.84;5001533;28;24517;-73
2022/08/03 06:45:07;;;;;;;3.47;2.90;;;;;;;22.07;60.39;95948.53;5008633;28;24439;-73
2022/08/03 06:47:34;;;;;;;2.80;2.60;;;;;;;22.02;60.99;95951.63;5010493;28;24451;-72
2022/08/03 06:50:00;;;;;;;6.50;3.25;;;;;;;21.95;61.23;95946.22;5001792;28;24468;-73
2022/08/03 06:52:28;;;;;;;3.45;2.70;;;;;;;22.20;60.63;95956.81;5007854;28;24490;-72
2022/08/03 06:54:55;;;;;;;5.63;2.75;;;;;;;22.42;58.97;95948.22;5008493;28;24487;-72
2022/08/03 06:57:21;;;;;;;6.60;2.50;;;;;;;22.53;58.59;95948.91;5012051;28;24436;-73
2022/08/03 06:59:48;;;;;;;4.25;2.60;;;;;;;22.81;58.35;95952.84;5014290;28;24498;-72
2022/08/03 07:02:14;;;;;;;10.00;2.67;;;;;;;22.62;58.15;95947.88;5005762;28;24854;-71
2022/08/03 07:04:40;;;;;;;5.32;2.50;;;;;;;22.89;57.97;95954.63;5010212;28;25029;-72
2022/08/03 07:07:07;;;;;;;3.90;2.58;;;;;;;23.37;57.23;95958.16;5013110;28;24441;-71
2022/08/03 07:09:35;;;;;;;5.78;2.50;;;;;;;23.39;56.69;95959.63;5009981;28;24495;-72
2022/08/03 07:12:03;;;;;;;4.30;1.97;;;;;;;23.76;56.50;95960.81;5005393;28;24522;-72
2022/08/03 07:14:29;;;;;;;2.38;1.88;;;;;;;23.88;55.55;95954.16;5008520;28;24442;-73
2022/08/03 07:16:56;;;;;;;5.20;2.35;;;;;;;24.12;54.53;95965.56;5010039;28;24439;-73
2022/08/03 07:19:22;;;;;;;2.42;2.00;;;;;;;24.10;54.47;95952.53;5010046;28;24440;-72
2022/08/03 07:21:48;;;;;;;2.55;1.95;;;;;;;24.33;54.12;95955.19;5009886;28;25021;-72
2022/08/03 07:24:15;;;;;;;3.67;2.03;;;;;;;24.43;54.71;95944.34;5008906;28;24471;-72
2022/08/03 07:26:43;;;;;;;2.22;1.83;;;;;;;24.40;54.77;95950.03;5008214;28;24854;-73
2022/08/03 07:29:09;;;;;;;2.17;1.60;;;;;;;24.47;54.07;95950.13;5005798;28;24444;-72
2022/08/03 07:31:35;;;;;;;1.92;1.70;;;;;;;24.62;54.07;95956.28;5007582;28;24862;-72
2022/08/03 07:34:02;;;;;;;4.03;2.10;;;;;;;24.56;54.57;95951.72;5009787;28;24969;-73
2022/08/03 07:36:28;;;;;;;2.28;1.88;;;;;;;24.74;54.56;95946.91;5001280;28;24516;-73
2022/08/03 07:38:56;;;;;;;2.80;1.65;;;;;;;24.63;54.52;95957.94;5007786;28;24444;-72
2022/08/03 07:41:23;;;;;;;3.97;1.90;;;;;;;24.96;53.88;95955.81;5009723;28;24476;-73
2022/08/03 07:43:51;;;;;;;1.75;1.63;;;;;;;24.85;53.95;95953.59;5009744;28;24440;-73
2022/08/03 07:46:17;;;;;;;2.60;1.83;;;;;;;25.07;53.29;95962.50;5009532;28;24433;-73
2022/08/03 07:48:44;;;;;;;1.63;1.50;;;;;;;25.11;53.64;95958.50;5009776;28;24443;-71
2022/08/03 07:51:11;;;;;;;3.70;2.17;;;;;;;25.30;53.11;95957.13;5008453;28;24515;-72
2022/08/03 07:53:37;;;;;;;2.28;1.40;;;;;;;25.49;52.81;95958.41;5010636;28;24502;-73
2022/08/03 07:56:04;;;;;;;6.88;1.70;;;;;;;25.75;52.44;95960.56;5009425;28;25279;-72
2022/08/03 07:58:31;;;;;;;3.00;1.50;;;;;;;25.92;51.37;95956.72;5002762;28;24556;-72
2022/08/03 08:00:58;;;;;;;2.42;1.33;;;;;;;26.06;51.10;95957.66;5030888;22;24614;-72
2022/08/03 08:03:25;;;;;;;3.38;1.67;;;;;;;26.37;50.74;95964.53;5004343;28;24440;-73
2022/08/03 08:05:52;;;;;;;3.70;1.38;;;;;;;26.56;49.29;95953.28;5004070;28;25218;-73
2022/08/03 08:08:19;;;;;;;1.60;1.27;;;;;;;27.15;48.35;95950.28;5008819;28;24467;-74
2022/08/03 08:10:45;;;;;;;2.38;1.58;;;;;;;27.66;46.88;95951.75;5004225;28;25002;-73
2022/08/03 08:13:12;;;;;;;3.25;1.52;;;;;;;27.25;46.91;95944.59;5012093;28;25000;-73
2022/08/03 08:15:38;;;;;;;2.03;1.60;;;;;;;27.05;46.98;95941.78;5002069;28;24440;-73
2022/08/03 08:18:06;;;;;;;3.63;1.40;;;;;;;27.24;46.63;95941.13;5005774;28;24452;-73
2022/08/03 08:20:36;;;;;;;4.00;1.60;;;;;;;27.23;46.12;95933.34;5008861;28;24906;-73
2022/08/03 08:23:04;;;;;;;2.15;1.23;;;;;;;27.20;45.42;95937.22;5010720;28;24437;-73
2022/08/03 08:25:31;;;;;;;1.77;1.13;;;;;;;27.60;44.95;95929.44;5008198;28;24490;-74
2022/08/03 08:28:00;;;;;;;2.10;1.20;;;;;;;27.70;45.67;95940.53;5004758;28;25049;-73
2022/08/03 08:30:27;;;;;;;1.75;1.08;;;;;;;27.79;44.12;95941.19;5009189;28;24498;-72
2022/08/03 08:32:53;;;;;;;1.90;0.90;;;;;;;28.35;41.77;95942.75;5012584;28;24444;-73
2022/08/03 08:35:21;;;;;;;2.10;1.30;;;;;;;28.62;40.85;95938.28;5012870;28;24436;-73
2022/08/03 08:37:47;;;;;;;1.25;0.95;;;;;;;29.12;37.76;95942.19;5011662;28;24495;-73
2022/08/03 08:40:14;;;;;;;1.88;0.90;;;;;;;29.45;36.91;95943.97;5012088;28;24440;-73
2022/08/03 08:42:41;;;;;;;2.10;0.93;;;;;;;29.62;36.50;95945.13;5012891;28;24439;-73
2022/08/03 08:45:10;;;;;;;0.98;0.85;;;;;;;29.70;37.92;95945.94;5009575;28;24861;-73
2022/08/03 08:47:38;;;;;;;1.00;0.80;;;;;;;29.80;36.08;95951.66;5012648;28;25066;-72
2022/08/03 08:50:07;;;;;;;5.20;0.90;;;;;;;29.81;36.88;95950.59;5012169;28;24973;-72
2022/08/03 08:52:36;;;;;;;1.27;0.80;;;;;;;30.36;35.38;95942.94;5006950;28;25049;-74
2022/08/03 08:55:06;;;;;;;1.13;0.85;;;;;;;30.57;34.61;95945.25;5009127;28;24969;-74
2022/08/03 08:57:36;;;;;;;0.80;0.70;;;;;;;30.72;31.90;95936.91;5012500;28;24439;-74
2022/08/03 09:00:06;;;;;;;1.15;0.70;;;;;;;30.72;29.51;95936.91;5010734;28;24535;-75
2022/08/03 09:02:33;;;;;;;5.78;0.90;;;;;;;30.91;30.70;95942.34;5012658;28;24439;-74
2022/08/03 09:05:00;;;;;;;4.53;0.63;;;;;;;30.78;30.39;95940.63;5009745;28;24437;-74
2022/08/03 09:07:27;;;;;;;1.25;0.90;;;;;;;30.89;31.81;95941.72;5004908;28;24981;-74
2022/08/03 09:09:55;;;;;;;2.20;0.88;;;;;;;30.90;32.03;95944.19;5010163;28;24463;-74
2022/08/03 09:12:22;;;;;;;1.40;0.90;;;;;;;30.96;32.55;95940.63;5007016;28;25024;-73
2022/08/03 09:14:49;;;;;;;1.42;1.00;;;;;;;31.34;33.29;95939.69;5015140;28;24439;-74
2022/08/03 09:17:15;;;;;;;1.23;0.82;;;;;;;31.23;33.45;95941.22;5009966;28;24469;-74
2022/08/03 09:19:42;;;;;;;3.83;0.90;;;;;;;31.12;33.30;95941.94;5009469;28;24439;-74
2022/08/03 09:22:11;;;;;;;1.27;0.70;;;;;;;31.32;31.85;95944.44;5011007;28;24904;-74
2022/08/03 09:24:38;;;;;;;1.88;0.77;;;;;;;31.53;32.01;95938.66;5011222;28;24463;-74
2022/08/03 09:27:12;;;;;;;1.10;0.90;;;;;;;31.68;34.77;95934.78;5009255;28;24507;-74
2022/08/03 09:29:39;;;;;;;0.95;0.68;;;;;;;31.58;31.78;95941.47;5008866;28;24528;-75
2022/08/03 09:32:05;;;;;;;2.80;0.80;;;;;;;31.57;30.38;95939.81;5001376;28;24807;-75
2022/08/03 09:34:32;;;;;;;1.50;0.85;;;;;;;31.70;29.93;95936.16;5008372;28;24487;-75
2022/08/03 09:36:59;;;;;;;1.88;1.08;;;;;;;31.88;31.52;95939.91;5010103;28;24444;-75
2022/08/03 09:39:30;;;;;;;1.95;1.00;;;;;;;31.89;32.01;95945.06;5001930;28;24437;-74
2022/08/03 09:42:09;;;;;;;3.33;0.88;;;;;;;31.87;33.81;95932.91;5009779;28;24973;-74
2022/08/03 09:44:37;;;;;;;2.20;0.95;;;;;;;31.65;31.23;95935.22;5010943;28;24433;-73
2022/08/03 09:47:05;;;;;;;2.78;0.85;;;;;;;31.71;31.84;95929.78;5008518;28;24451;-74
2022/08/03 09:49:32;;;;;;;1.27;0.90;;;;;;;31.45;31.54;95933.59;5009018;28;24523;-75
2022/08/03 09:52:02;;;;;;;1.30;0.90;;;;;;;31.76;32.01;95931.78;5002409;28;25000;-74
2022/08/03 09:54:30;;;;;;;1.50;0.90;;;;;;;31.72;32.11;95931.41;5008270;28;25028;-75
2022/08/03 09:56:58;;;;;;;2.17;1.08;;;;;;;31.80;31.91;95930.28;5009746;28;24491;-75
2022/08/03 09:59:28;;;;;;;1.33;0.82;;;;;;;31.92;32.34;95930.38;5000928;28;24993;-75
2022/08/03 10:01:55;;;;;;;3.77;1.10;;;;;;;32.22;31.11;95933.03;5009197;28;24449;-75
2022/08/03 10:04:22;;;;;;;2.13;1.02;;;;;;;32.15;31.03;95933.16;5011332;28;24440;-76
2022/08/03 10:07:03;;;;;;;1.70;1.10;;;;;;;32.02;30.66;95926.09;5010730;28;24437;-75
2022/08/03 10:09:29;;;;;;;2.13;1.00;;;;;;;32.22;31.94;95928.50;5008821;28;24508;-76
2022/08/03 10:11:58;;;;;;;2.47;1.10;;;;;;;32.15;32.28;95925.13;5009301;28;24574;-75
2022/08/03 10:14:30;;;;;;;2.50;1.20;;;;;;;32.07;32.85;95917.38;5010084;28;24443;-76
2022/08/03 10:16:57;;;;;;;1.58;1.23;;;;;;;31.89;32.55;95912.91;5009592;28;24441;-76
2022/08/03 10:19:24;;;;;;;1.85;1.10;;;;;;;31.86;32.87;95917.91;5001215;28;24429;-76
2022/08/03 10:21:55;;;;;;;2.20;1.05;;;;;;;31.85;33.32;95911.66;5009816;28;24482;-76
2022/08/03 10:24:26;;;;;;;2.42;1.15;;;;;;;31.77;31.97;95910.13;5008844;28;24445;-75
2022/08/03 10:26:57;;;;;;;1.23;1.05;;;;;;;32.01;31.65;95911.09;5009579;28;25043;-75
2022/08/03 10:29:28;;;;;;;3.58;1.15;;;;;;;31.94;32.35;95907.69;5010428;28;24806;-75
2022/08/03 10:31:58;;;;;;;1.70;1.10;;;;;;;32.20;31.57;95906.47;5006562;28;24851;-74
2022/08/03 10:34:28;;;;;;;1.20;1.10;;;;;;;32.38;31.94;95904.78;5010740;28;24435;-74
2022/08/03 10:36:58;;;;;;;2.57;1.17;;;;;;;32.34;30.79;95908.97;5010335;28;24981;-74
2022/08/03 10:39:29;;;;;;;2.03;1.10;;;;;;;32.43;30.66;95897.69;5008836;28;24441;-74
2022/08/03 10:41:57;;;;;;;3.30;1.20;;;;;;;32.56;31.46;95904.72;5009163;28;24437;-75
2022/08/03 10:44:33;;;;;;;1.50;1.00;;;;;;;32.52;31.25;95899.00;5007281;28;22021;-74
2022/08/03 10:47:00;;;;;;;1.23;0.90;;;;;;;32.41;31.05;95891.78;4998479;28;24499;-74
2022/08/03 10:49:27;;;;;;;1.50;1.15;;;;;;;32.26;32.05;95891.34;5000100;28;25012;-74
2022/08/03 10:51:54;;;;;;;3.45;1.10;;;;;;;32.22;31.13;95887.47;5005477;28;24471;-74
2022/08/03 10:57:33;;;;;;;1.77;1.30;;;;;;;32.31;32.29;95885.31;5005659;28;24994;-74
2022/08/03 10:57:48;;;;;;;2.00;1.15;;;;;;;32.27;32.33;95885.75;5006268;28;24416;-74
2022/08/03 11:00:17;;;;;;;2.80;1.30;;;;;;;32.41;31.18;95883.72;5003695;28;24475;-74
2022/08/03 11:03:07;;;;;;;5.40;1.30;;;;;;;32.49;31.52;95888.75;5007340;28;24439;-73
2022/08/03 11:05:36;;;;;;;1.75;1.15;;;;;;;32.57;31.85;95886.78;5003721;28;25065;-75
2022/08/03 11:08:26;;;;;;;1.30;1.20;;;;;;;33.08;31.49;95891.47;5009527;28;24444;-75
2022/08/03 11:10:54;;;;;;;4.70;1.20;;;;;;;32.01;30.74;95881.63;5006715;28;24441;-75
2022/08/03 11:13:23;;;;;;;2.63;1.00;;;;;;;31.29;31.43;95875.28;5009419;28;24547;-75
2022/08/03 11:15:53;;;;;;;2.30;0.93;;;;;;;31.99;32.03;95878.34;5005326;28;24982;-75
2022/08/03 11:18:20;;;;;;;1.30;1.00;;;;;;;32.44;32.38;95875.19;5007900;28;24834;-75
2022/08/03 11:20:48;;;;;;;8.43;1.20;;;;;;;31.76;31.63;95875.53;5006355;28;24437;-74
2022/08/03 11:23:16;;;;;;;3.13;1.20;;;;;;;32.24;30.94;95866.66;5005723;28;24440;-75
2022/08/03 11:26:13;;;;;;;1.52;1.10;;;;;;;32.44;30.09;95867.16;5002383;28;24523;-75
2022/08/03 11:28:40;;;;;;;1.70;1.08;;;;;;;32.60;32.07;95863.00;4964603;28;24439;-72
2022/08/03 11:31:55;;;;;;;1.93;0.97;;;;;;;32.20;31.16;95866.28;5008218;28;24436;-75
2022/08/03 11:34:24;;;;;;;3.27;1.10;;;;;;;32.26;30.43;95867.22;5004153;28;24665;-75
2022/08/03 11:37:22;;;;;;;1.52;1.23;;;;;;;32.32;31.29;95863.63;5007622;28;24878;-76
2022/08/03 11:39:53;;;;;;;1.80;1.00;;;;;;;32.15;31.53;95863.50;4999544;28;24444;-75
2022/08/03 11:42:46;;;;;;;1.33;1.10;;;;;;;31.70;31.82;95863.06;5006205;28;24441;-75
2022/08/03 11:45:12;;;;;;;2.35;1.20;;;;;;;31.62;31.67;95861.50;5002484;28;24437;-74
2022/08/03 11:47:40;;;;;;;1.50;1.13;;;;;;;31.91;31.91;95865.28;5008587;28;24945;-74
2022/08/03 11:50:08;;;;;;;1.70;1.20;;;;;;;31.84;31.00;95864.50;4995812;28;24452;-75